Time;durP1;ratioP1;P1;durP2;ratioP2;P2;SDS_P1;SDS_P2;PMS_P1;PMS_P2;Temp;Humidity;BMP_temperature;BMP_pressure;BME280_temperature;BME280_humidity;BME280_pressure;Samples;Min_cycle;Max_cycle;Signal;HPM_P1;HPM_P2
2022/01/30 00:02:19;;;;;;;11.18;8.03;;;;;;;5.01;100.00;98185.23;1630743;88;26199;-73
2022/01/30 00:04:45;;;;;;;10.50;7.97;;;;;;;5.03;100.00;98176.88;1630972;88;25763;-73
2022/01/30 00:07:12;;;;;;;10.75;7.28;;;;;;;5.07;100.00;98172.42;1630759;87;27333;-73
2022/01/30 00:09:39;;;;;;;10.43;6.62;;;;;;;5.09;100.00;98162.73;1630999;88;25536;-73
2022/01/30 00:12:07;;;;;;;8.58;6.17;;;;;;;5.13;100.00;98130.94;1630891;88;25671;-73
2022/01/30 00:14:36;;;;;;;7.45;6.00;;;;;;;5.20;100.00;98157.23;1699274;83;26255;-73
2022/01/30 00:17:20;;;;;;;7.60;5.40;;;;;;;5.26;100.00;98152.45;1726901;83;25629;-74
2022/01/30 00:19:48;;;;;;;8.08;5.17;;;;;;;5.31;100.00;98165.66;1725541;82;27374;-72
2022/01/30 00:24:55;;;;;;;4.60;4.20;;;;;;;5.37;100.00;98120.14;1726840;83;25581;-74
2022/01/30 00:27:27;;;;;;;6.67;4.12;;;;;;;5.36;100.00;98152.88;1726445;83;26169;-74
2022/01/30 00:29:47;;;;;;;3.70;3.33;;;;;;;5.41;100.00;98138.47;1726449;83;25530;-74
2022/01/30 00:32:14;;;;;;;4.60;4.20;;;;;;;5.40;100.00;98152.44;1726787;83;27918;-74
2022/01/30 00:34:41;;;;;;;5.45;3.58;;;;;;;5.41;100.00;98157.23;1726660;82;25636;-74
2022/01/30 00:37:07;;;;;;;6.85;3.67;;;;;;;5.40;100.00;98191.88;1726739;83;25462;-74
2022/01/30 00:39:33;;;;;;;4.87;2.98;;;;;;;5.35;100.00;98195.53;1726691;83;26202;-74
2022/01/30 00:42:00;;;;;;;4.50;2.00;;;;;;;5.29;99.33;98212.13;1726748;83;25549;-74
2022/01/30 00:44:26;;;;;;;3.77;1.80;;;;;;;5.13;98.10;98211.91;1726685;82;27382;-74
2022/01/30 00:46:54;;;;;;;3.80;2.12;;;;;;;4.96;97.72;98239.00;1726624;82;25656;-74
2022/01/30 00:49:21;;;;;;;3.12;1.32;;;;;;;4.83;97.58;98234.63;1726795;83;25528;-73
2022/01/30 00:51:47;;;;;;;3.98;1.92;;;;;;;4.71;97.69;98234.52;1726849;83;25687;-74
2022/01/30 00:54:14;;;;;;;4.75;2.37;;;;;;;4.61;97.89;98221.70;1726822;83;25486;-75
2022/01/30 00:56:40;;;;;;;4.65;1.85;;;;;;;4.54;98.09;98212.59;1726811;83;27373;-75
2022/01/30 00:59:09;;;;;;;4.78;2.30;;;;;;;4.47;98.28;98211.19;1726785;83;25616;-75
2022/01/30 01:01:35;;;;;;;8.58;2.20;;;;;;;4.43;98.34;98213.50;1726758;83;25612;-75
2022/01/30 01:04:01;;;;;;;5.42;2.02;;;;;;;4.39;98.28;98211.21;1726715;83;25679;-75
2022/01/30 01:06:28;;;;;;;4.12;2.17;;;;;;;4.35;98.14;98215.08;1726784;83;25628;-75
2022/01/30 01:09:01;;;;;;;12.33;3.00;;;;;;;4.30;97.99;98229.41;1726723;83;27540;-75
2022/01/30 01:24:54;;;;;;;5.95;1.92;;;;;;;4.17;95.79;98209.52;1726792;83;25371;-74
2022/01/30 01:27:20;;;;;;;7.58;2.50;;;;;;;4.09;94.81;98221.26;1726907;83;25557;-74
2022/01/30 01:29:47;;;;;;;14.23;2.58;;;;;;;4.02;93.72;98222.30;1726705;83;26266;-74
2022/01/30 01:32:13;;;;;;;10.68;2.30;;;;;;;3.95;93.21;98211.29;1726705;83;25623;-74
2022/01/30 01:34:41;;;;;;;9.73;1.92;;;;;;;3.91;92.89;98208.98;1726688;83;27370;-74
2022/01/30 01:37:10;;;;;;;12.15;2.55;;;;;;;3.85;91.80;98211.05;1726611;83;25634;-73
2022/01/30 01:39:36;;;;;;;9.25;2.12;;;;;;;3.82;92.39;98196.95;1726650;83;25588;-73
2022/01/30 01:42:04;;;;;;;9.48;1.80;;;;;;;3.76;91.11;98201.44;1726640;83;25657;-73
2022/01/30 01:44:46;;;;;;;6.67;1.85;;;;;;;3.71;90.86;98223.23;1726652;82;25626;-73
2022/01/30 01:47:08;;;;;;;10.55;2.80;;;;;;;3.69;90.52;98208.03;1724386;83;27363;-73
2022/01/30 01:49:36;;;;;;;10.48;2.37;;;;;;;3.66;90.74;98208.69;1726717;83;25439;-73
2022/01/30 01:52:18;;;;;;;15.68;2.58;;;;;;;3.65;90.94;98199.08;1726644;83;25447;-73
2022/01/30 01:54:42;;;;;;;;;;;;;;;3.64;90.97;98213.53;1729042;83;25689;-71
2022/01/30 01:57:09;;;;;;;8.33;2.40;;;;;;;3.63;89.75;98203.96;1726689;83;25458;-71
2022/01/30 01:59:35;;;;;;;8.55;1.77;;;;;;;3.64;90.53;98176.11;1726674;82;28106;-73
2022/01/30 02:02:03;;;;;;;14.90;2.42;;;;;;;3.65;90.45;98200.97;1726572;83;25622;-73
2022/01/30 02:04:30;;;;;;;14.60;2.85;;;;;;;3.69;89.23;98202.69;1726592;81;25372;-73
2022/01/30 02:09:31;;;;;;;9.03;2.05;;;;;;;3.73;87.87;98197.52;1616540;87;25579;-73
2022/01/30 02:11:57;;;;;;;9.20;2.27;;;;;;;3.73;88.91;98196.19;1616142;88;27140;-73
2022/01/30 02:14:42;;;;;;;10.98;1.92;;;;;;;3.73;87.86;98194.29;1616257;88;25732;-73
2022/01/30 02:27:42;;;;;;;4.55;1.60;;;;;;;3.73;86.21;98171.56;1616396;88;25798;-73
2022/01/30 02:30:15;;;;;;;11.97;3.55;;;;;;;3.74;86.46;98162.98;1616333;88;25540;-73
2022/01/30 02:32:42;;;;;;;13.50;4.40;;;;;;;3.74;85.63;98161.08;1616164;88;25619;-72
2022/01/30 02:35:10;;;;;;;15.70;2.72;;;;;;;3.76;85.13;98182.16;1616365;88;25637;-73
2022/01/30 02:37:36;;;;;;;12.60;3.00;;;;;;;3.79;85.24;98174.08;1616345;88;27410;-73
2022/01/30 02:40:10;;;;;;;12.33;3.70;;;;;;;3.78;85.32;98169.28;1616242;88;25483;-72
2022/01/30 02:42:37;;;;;;;13.58;3.10;;;;;;;3.78;86.27;98169.81;1616044;88;25504;-72
2022/01/30 02:45:07;;;;;;;17.07;2.65;;;;;;;3.76;86.22;98180.05;1616117;88;25642;-72
2022/01/30 02:50:31;;;;;;;9.80;2.33;;;;;;;3.68;86.26;98174.39;1726749;83;27351;-72
2022/01/30 02:52:55;;;;;;;10.58;2.50;;;;;;;3.65;86.75;98152.84;1725540;83;25533;-72
2022/01/30 02:55:14;;;;;;;10.23;2.40;;;;;;;3.60;87.12;98140.42;1725923;83;25645;-73
2022/01/30 02:57:40;;;;;;;13.53;2.27;;;;;;;3.55;87.31;98135.23;1726578;82;26227;-72
2022/01/30 03:00:10;;;;;;;8.90;2.08;;;;;;;3.53;86.97;98133.43;1726665;83;25567;-73
2022/01/30 03:02:36;;;;;;;;;;;;;;;3.52;87.45;98135.33;1729161;83;28035;-72
2022/01/30 03:05:03;;;;;;;13.53;2.80;;;;;;;3.52;87.14;98136.66;1726522;82;25609;-72
2022/01/30 03:07:30;;;;;;;12.73;2.22;;;;;;;3.51;87.42;98116.92;1726609;83;25647;-73
2022/01/30 03:09:56;;;;;;;20.40;3.33;;;;;;;3.49;85.55;98116.43;1726582;83;25634;-73
2022/01/30 03:12:23;;;;;;;11.28;2.40;;;;;;;3.51;86.39;98099.55;1726784;83;25415;-73
2022/01/30 03:14:50;;;;;;;8.85;1.87;;;;;;;3.51;85.32;98124.95;1726664;83;27318;-73
2022/01/30 03:17:17;;;;;;;15.20;3.20;;;;;;;3.54;84.84;98132.31;1726503;83;25418;-73
2022/01/30 03:19:43;;;;;;;11.73;2.47;;;;;;;3.58;84.12;98147.20;1731040;82;25407;-73
2022/01/30 03:22:10;;;;;;;13.08;2.95;;;;;;;3.61;84.21;98146.55;1734919;82;25665;-73
2022/01/30 03:24:37;;;;;;;16.57;2.70;;;;;;;3.62;84.44;98147.56;1734928;82;25829;-73
2022/01/30 03:27:10;;;;;;;9.90;2.80;;;;;;;3.63;83.91;98149.16;1734915;82;27918;-73
2022/01/30 03:29:37;;;;;;;13.55;2.35;;;;;;;3.62;84.65;98148.91;1734773;82;25474;-73
2022/01/30 03:32:06;;;;;;;14.90;2.92;;;;;;;3.59;84.21;98129.48;1734947;82;25644;-73
2022/01/30 03:34:33;;;;;;;4.55;1.65;;;;;;;3.58;84.08;98135.17;1735136;82;25617;-73
2022/01/30 03:37:00;;;;;;;9.40;2.65;;;;;;;3.53;83.55;98146.23;1734967;82;25631;-73
2022/01/30 03:39:27;;;;;;;5.83;1.40;;;;;;;3.47;83.85;98125.32;1734899;82;28324;-72
2022/01/30 03:41:53;;;;;;;14.10;2.10;;;;;;;3.38;83.59;98123.98;1734825;82;25821;-72
2022/01/30 03:44:20;;;;;;;5.33;1.20;;;;;;;3.31;83.13;98108.98;1734896;82;25416;-73
2022/01/30 03:46:46;;;;;;;11.43;1.55;;;;;;;3.22;82.89;98126.34;1734887;82;25622;-73
2022/01/30 03:49:13;;;;;;;12.55;1.67;;;;;;;3.16;83.35;98128.92;1734960;82;25586;-72
2022/01/30 03:51:39;;;;;;;8.48;1.27;;;;;;;3.09;83.47;98117.91;1734927;82;27351;-72
2022/01/30 03:54:07;;;;;;;8.13;1.45;;;;;;;3.02;83.63;98109.02;1735664;82;25415;-72
2022/01/30 03:56:33;;;;;;;6.70;1.30;;;;;;;2.97;82.92;98110.51;1737375;82;25221;-71
2022/01/30 03:59:00;;;;;;;6.55;1.42;;;;;;;2.93;82.29;98099.67;1738018;82;25735;-71
2022/01/30 04:01:26;;;;;;;7.35;1.37;;;;;;;2.95;83.04;98099.36;1738173;82;25149;-71
2022/01/30 04:03:52;;;;;;;9.95;1.45;;;;;;;2.95;83.61;98118.05;1737775;82;27313;-71
2022/01/30 04:06:19;;;;;;;11.48;1.55;;;;;;;2.94;83.10;98097.77;1737832;82;25452;-71
2022/01/30 04:08:46;;;;;;;9.03;1.85;;;;;;;2.95;83.60;98090.02;1738111;82;25550;-71
2022/01/30 04:11:13;;;;;;;11.55;1.62;;;;;;;2.96;83.99;98091.56;1737687;82;25722;-71
2022/01/30 04:13:39;;;;;;;7.90;1.62;;;;;;;2.96;83.89;98100.91;1738203;82;25325;-71
2022/01/30 04:16:07;;;;;;;7.58;1.65;;;;;;;2.95;83.61;98086.78;1738001;82;27320;-71
2022/01/30 04:18:34;;;;;;;9.00;1.87;;;;;;;2.98;83.94;98092.06;1737906;82;25563;-71
2022/01/30 04:21:01;;;;;;;6.72;1.77;;;;;;;2.99;83.50;98087.72;1737993;82;25314;-71
2022/01/30 04:23:27;;;;;;;8.25;1.80;;;;;;;3.02;83.27;98084.21;1737744;82;25861;-71
2022/01/30 04:25:55;;;;;;;8.45;2.20;;;;;;;3.03;84.09;98074.55;1737650;82;25176;-71
2022/01/30 04:28:22;;;;;;;9.78;3.05;;;;;;;3.05;84.11;98072.87;1737579;82;27332;-71
2022/01/30 04:30:51;;;;;;;12.98;2.77;;;;;;;3.05;84.24;98095.58;1737341;82;25219;-72
2022/01/30 04:33:18;;;;;;;13.40;2.42;;;;;;;3.06;83.96;98041.85;1737111;82;25627;-72
2022/01/30 04:35:45;;;;;;;8.03;2.02;;;;;;;3.08;84.01;98051.69;1736650;82;25609;-72
2022/01/30 04:38:26;;;;;;;19.30;2.35;;;;;;;3.08;83.68;98025.52;1737937;82;25501;-72
2022/01/30 04:57:23;;;;;;;11.68;2.22;;;;;;;3.29;82.93;98003.74;1637479;87;25708;-72
2022/01/30 05:05:07;;;;;;;12.80;3.42;;;;;;;3.39;82.72;97989.80;1637691;87;25518;-72
2022/01/30 05:09:44;;;;;;;10.40;2.20;;;;;;;3.42;81.83;97977.92;1637448;87;25565;-72
2022/01/30 05:12:12;;;;;;;6.72;1.65;;;;;;;3.45;81.74;97969.28;1637533;87;25502;-72
2022/01/30 05:14:40;;;;;;;14.98;2.30;;;;;;;3.49;79.95;97968.09;1637452;87;25683;-72
2022/01/30 05:17:07;;;;;;;10.03;2.08;;;;;;;3.53;80.06;97961.02;1637469;87;25669;-72
2022/01/30 05:19:35;;;;;;;13.60;2.10;;;;;;;3.57;79.33;97968.63;1637309;87;27344;-72
2022/01/30 05:22:01;;;;;;;16.35;3.22;;;;;;;3.59;77.83;97944.25;1637288;87;25624;-72
2022/01/30 05:24:28;;;;;;;12.85;2.15;;;;;;;3.62;79.19;97932.36;1637366;87;25718;-72
2022/01/30 05:26:55;;;;;;;7.70;2.10;;;;;;;3.62;79.66;97931.58;1637367;87;25793;-72
2022/01/30 05:29:21;;;;;;;11.85;2.20;;;;;;;3.62;79.25;97922.22;1684648;84;25634;-71
2022/01/30 05:31:48;;;;;;;11.22;2.47;;;;;;;3.61;78.77;97917.97;1705690;84;27392;-71
2022/01/30 05:34:15;;;;;;;11.80;2.15;;;;;;;3.60;79.51;97881.67;1705588;84;25621;-71
2022/01/30 05:36:44;;;;;;;10.70;1.90;;;;;;;3.55;79.64;97920.05;1705666;84;25472;-71
2022/01/30 05:39:11;;;;;;;10.47;1.87;;;;;;;3.48;80.32;97892.48;1705878;83;25690;-71
2022/01/30 05:43:15;;;;;;;6.87;1.80;;;;;;;3.39;81.04;97950.53;1971243;72;34994;-71
2022/01/30 10:56:33;;;;;;;18.77;5.83;;;;;;;1.74;95.35;97924.50;1852951;76;34771;-71
2022/01/30 10:59:16;;;;;;;18.87;5.15;;;;;;;1.71;95.47;97929.14;1743451;81;25620;-70
2022/01/30 11:01:47;;;;;;;19.40;6.55;;;;;;;1.70;95.80;97926.22;1753856;80;27564;-69
2022/01/30 11:04:29;;;;;;;17.77;5.20;;;;;;;1.72;96.13;97925.36;1745777;81;25698;-69
2022/01/30 11:07:02;;;;;;;11.85;4.67;;;;;;;1.74;96.29;97927.97;1726068;83;25769;-69
2022/01/30 11:09:35;;;;;;;18.80;5.42;;;;;;;1.78;95.97;97926.25;1735138;82;25597;-68
2022/01/30 11:12:05;;;;;;;11.88;3.98;;;;;;;1.82;95.73;97932.55;1729323;82;25639;-68
2022/01/30 11:14:40;;;;;;;14.93;3.95;;;;;;;1.85;95.77;97915.91;1737244;82;27620;-70
2022/01/30 11:17:15;;;;;;;9.40;3.37;;;;;;;1.91;95.79;97918.44;1744392;82;25394;-71
2022/01/30 11:19:39;;;;;;;;;;;;;;;1.93;96.05;97921.61;1736232;81;25429;-68
2022/01/30 11:22:12;;;;;;;14.23;4.80;;;;;;;1.94;95.46;97909.83;1751037;81;25603;-68
2022/01/30 11:25:04;;;;;;;13.08;3.50;;;;;;;1.96;95.97;97908.44;1746931;81;25726;-68
2022/01/30 11:27:32;;;;;;;11.65;3.90;;;;;;;1.98;95.64;97906.80;1730461;82;27623;-69
2022/01/30 11:30:00;;;;;;;13.65;4.67;;;;;;;2.02;95.41;97913.07;1739836;82;25732;-70
2022/01/30 11:32:28;;;;;;;9.83;3.58;;;;;;;2.02;95.53;97932.52;1744477;81;25691;-69
2022/01/30 11:34:57;;;;;;;11.88;4.10;;;;;;;2.03;95.36;97941.31;1740665;81;25786;-70
2022/01/30 11:37:27;;;;;;;14.28;4.62;;;;;;;2.05;95.50;97951.12;1755459;81;25403;-71
2022/01/30 11:39:55;;;;;;;11.08;3.85;;;;;;;2.03;95.53;97959.43;1730246;82;27482;-70
2022/01/30 11:42:29;;;;;;;9.10;4.22;;;;;;;2.05;95.58;97958.56;1736680;82;25405;-70
2022/01/30 11:45:10;;;;;;;9.68;4.17;;;;;;;2.08;95.48;97968.37;1734342;81;25731;-69
2022/01/30 11:48:00;;;;;;;16.12;5.15;;;;;;;2.14;95.60;97965.81;1734147;81;25667;-68
2022/01/30 11:50:30;;;;;;;16.95;5.97;;;;;;;2.19;95.71;97966.44;1746595;81;25648;-68
2022/01/30 11:53:06;;;;;;;14.87;5.40;;;;;;;2.23;95.53;97967.94;1750747;81;27598;-68
2022/01/30 11:55:41;;;;;;;18.98;5.08;;;;;;;2.28;95.44;97982.47;1732357;81;25786;-68
2022/01/30 11:58:31;;;;;;;8.93;4.85;;;;;;;2.34;95.48;97987.91;1725056;78;26611;-68
2022/01/30 12:01:14;;;;;;;10.15;4.10;;;;;;;2.39;95.50;97982.98;1733719;81;25457;-67
2022/01/30 12:04:03;;;;;;;11.50;4.12;;;;;;;2.47;95.52;97981.41;1738471;81;25466;-67
2022/01/30 12:06:36;;;;;;;12.60;4.78;;;;;;;2.52;95.39;97976.73;1749527;81;27659;-67
2022/01/30 12:09:23;;;;;;;13.35;5.00;;;;;;;2.59;95.35;97984.27;1755135;81;25764;-67
2022/01/30 12:11:52;;;;;;;11.93;3.95;;;;;;;2.63;95.18;97969.75;1732257;82;25715;-66
2022/01/30 12:14:26;;;;;;;;;;;;;;;2.65;94.95;97991.57;1736082;82;25727;-68
2022/01/30 12:16:56;;;;;;;8.15;2.72;;;;;;;2.66;94.79;98006.50;1753253;81;25666;-68
2022/01/30 12:19:40;;;;;;;13.60;3.70;;;;;;;2.64;94.49;97999.33;1738903;81;32105;-68
2022/01/30 12:22:27;;;;;;;6.97;3.20;;;;;;;2.61;94.27;98015.44;1753819;81;25701;-68
2022/01/30 12:25:25;;;;;;;11.53;3.83;;;;;;;2.57;94.18;98017.14;1762649;81;25627;-68
2022/01/30 12:27:55;;;;;;;7.67;3.03;;;;;;;2.54;94.26;98025.23;1731291;82;25584;-68
2022/01/30 12:30:39;;;;;;;6.62;3.15;;;;;;;2.49;94.37;98016.59;1750655;81;25636;-68
2022/01/30 12:33:39;;;;;;;5.83;2.90;;;;;;;2.48;94.43;98031.02;1754567;81;27446;-68
2022/01/30 12:36:15;;;;;;;6.65;2.83;;;;;;;2.48;94.47;98041.70;1764028;80;27323;-68
2022/01/30 12:38:43;;;;;;;7.55;3.20;;;;;;;2.46;94.67;98055.34;1761593;80;25744;-69
2022/01/30 12:41:17;;;;;;;18.67;6.47;;;;;;;2.45;94.68;98053.77;1763400;81;25725;-68
2022/01/30 12:43:44;;;;;;;8.33;4.20;;;;;;;2.45;94.86;98056.43;1768583;81;25667;-68
2022/01/30 12:46:12;;;;;;;4.97;2.80;;;;;;;2.46;94.30;98058.02;1761327;81;27539;-68
2022/01/30 12:48:40;;;;;;;5.00;2.53;;;;;;;2.47;94.24;98080.95;1767858;81;25625;-67
2022/01/30 12:51:13;;;;;;;8.25;3.95;;;;;;;2.47;94.15;98086.28;1762297;81;25550;-67
2022/01/30 12:53:38;;;;;;;6.87;3.25;;;;;;;2.48;94.24;98092.40;1763204;81;25475;-66
2022/01/30 12:56:05;;;;;;;8.60;4.50;;;;;;;2.48;94.20;98093.17;1760982;81;25362;-68
2022/01/30 12:58:40;;;;;;;8.28;3.98;;;;;;;2.49;94.32;98107.33;1764401;81;28086;-67
2022/01/30 13:01:09;;;;;;;5.08;3.17;;;;;;;2.49;94.43;98110.77;1768904;80;25925;-68
2022/01/30 13:03:36;;;;;;;4.58;2.50;;;;;;;2.49;94.30;98118.00;1760779;81;25688;-68
2022/01/30 13:06:03;;;;;;;6.67;3.33;;;;;;;2.45;94.12;98115.14;1766273;80;25561;-68
2022/01/30 13:08:49;;;;;;;6.05;3.22;;;;;;;2.43;93.95;98126.67;1765379;81;25271;-67
2022/01/30 13:11:20;;;;;;;5.20;2.27;;;;;;;2.41;94.04;98138.20;1763962;81;27537;-67
2022/01/30 13:14:05;;;;;;;8.33;4.35;;;;;;;2.37;94.03;98128.70;1759028;81;25455;-68
2022/01/30 13:16:42;;;;;;;4.03;1.65;;;;;;;2.34;93.95;98146.65;1762267;81;25965;-67
2022/01/30 13:19:15;;;;;;;7.47;4.25;;;;;;;2.28;94.11;98157.75;1763694;81;25688;-68
2022/01/30 13:21:47;;;;;;;6.03;3.12;;;;;;;2.26;94.02;98168.73;1768970;81;25748;-68
2022/01/30 13:24:19;;;;;;;3.90;2.00;;;;;;;2.23;94.05;98176.81;1761767;81;27540;-69
2022/01/30 13:26:48;;;;;;;10.18;5.53;;;;;;;2.19;94.16;98179.83;1761728;80;25679;-69
2022/01/30 13:29:21;;;;;;;6.78;3.75;;;;;;;2.20;94.44;98179.30;1764037;81;28699;-69
2022/01/30 13:31:51;;;;;;;6.20;3.65;;;;;;;2.20;94.42;98185.97;1760779;81;25289;-69
2022/01/30 13:34:26;;;;;;;5.95;4.20;;;;;;;2.18;94.60;98188.13;1767400;81;25469;-69
2022/01/30 13:37:08;;;;;;;4.67;3.40;;;;;;;2.19;94.68;98187.83;1751831;81;27498;-67
2022/01/30 13:39:52;;;;;;;7.75;3.72;;;;;;;2.21;94.81;98191.53;1744142;81;25666;-67
2022/01/30 13:48:18;;;;;;;4.97;2.58;;;;;;;2.19;94.95;98225.73;1750057;81;25279;-67
2022/01/30 13:51:06;;;;;;;6.40;3.85;;;;;;;2.19;95.21;98223.84;1756755;81;27654;-67
2022/01/30 13:53:40;;;;;;;5.10;2.37;;;;;;;2.21;95.40;98211.54;1741025;82;25424;-67
2022/01/30 13:56:11;;;;;;;5.08;2.85;;;;;;;2.23;95.66;98224.83;1740537;82;25687;-68
2022/01/30 13:58:43;;;;;;;6.03;3.12;;;;;;;2.25;95.83;98212.52;1740773;82;25584;-67
2022/01/30 14:01:14;;;;;;;5.72;3.40;;;;;;;2.26;95.99;98226.08;1741023;82;25559;-67
2022/01/30 14:03:44;;;;;;;5.95;3.20;;;;;;;2.30;95.96;98229.73;1753484;81;28554;-66
2022/01/30 14:06:22;;;;;;;4.80;3.00;;;;;;;2.33;95.93;98239.00;1753787;81;25542;-67
2022/01/30 14:08:52;;;;;;;4.80;3.37;;;;;;;2.36;95.93;98245.06;1753838;81;25382;-66
2022/01/30 14:11:32;;;;;;;4.60;3.58;;;;;;;2.36;95.78;98251.73;1749126;81;26277;-67
2022/01/30 14:14:10;;;;;;;11.80;6.42;;;;;;;2.40;95.83;98270.03;1754435;81;25385;-68
2022/01/30 14:16:50;;;;;;;7.00;3.80;;;;;;;2.40;95.62;98272.18;1771778;81;27135;-67
2022/01/30 14:19:26;;;;;;;3.77;2.50;;;;;;;2.43;95.59;98273.44;1790885;80;25711;-66
2022/01/30 14:21:57;;;;;;;3.12;2.30;;;;;;;2.41;95.53;98274.30;1790920;80;25522;-67
2022/01/30 14:24:27;;;;;;;3.37;2.30;;;;;;;2.40;95.11;98286.05;1790943;80;25842;-67
2022/01/30 14:27:11;;;;;;;4.85;2.60;;;;;;;2.40;95.17;98292.72;1791065;80;25600;-67
2022/01/30 14:29:39;;;;;;;4.22;2.60;;;;;;;2.38;95.01;98301.58;1790959;80;27242;-67
2022/01/30 14:32:14;;;;;;;2.85;2.10;;;;;;;2.37;95.04;98295.46;1790881;80;25612;-67
2022/01/30 14:34:42;;;;;;;4.90;2.98;;;;;;;2.37;94.98;98292.02;1790978;80;25453;-67
2022/01/30 14:37:10;;;;;;;5.00;2.52;;;;;;;2.36;95.01;98295.20;1790833;80;25744;-67
2022/01/30 14:39:38;;;;;;;5.93;2.47;;;;;;;2.35;94.94;98307.52;1791209;80;25623;-69
2022/01/30 14:42:12;;;;;;;3.55;2.50;;;;;;;2.34;94.90;98312.07;1764172;80;27598;-68
2022/01/30 14:44:42;;;;;;;4.65;2.85;;;;;;;2.33;94.91;98325.16;1790912;80;25477;-68
2022/01/30 14:47:09;;;;;;;3.92;2.47;;;;;;;2.31;94.85;98330.02;1791088;80;25611;-67
2022/01/30 14:49:37;;;;;;;4.53;2.42;;;;;;;2.28;94.86;98324.50;1790911;80;25672;-67
2022/01/30 14:52:07;;;;;;;3.83;2.35;;;;;;;2.28;94.97;98342.61;1790686;80;25415;-71
2022/01/30 14:54:35;;;;;;;4.28;3.10;;;;;;;2.26;95.14;98350.14;1786570;80;28035;-71
2022/01/30 14:57:04;;;;;;;4.67;2.70;;;;;;;2.23;94.99;98366.73;1749053;81;25306;-70
2022/01/30 14:59:31;;;;;;;3.20;2.27;;;;;;;2.19;94.93;98369.22;1764576;81;25549;-70
2022/01/30 15:01:58;;;;;;;4.15;2.30;;;;;;;2.17;94.86;98371.95;1746124;81;25634;-70
2022/01/30 15:04:24;;;;;;;4.03;2.67;;;;;;;2.17;95.12;98387.41;1772146;81;25657;-69
2022/01/30 15:06:51;;;;;;;5.75;2.58;;;;;;;2.19;95.39;98377.78;1772097;81;27442;-69
2022/01/30 15:09:18;;;;;;;4.78;2.12;;;;;;;2.20;95.38;98382.03;1772043;81;25380;-70
2022/01/30 15:11:45;;;;;;;4.78;2.60;;;;;;;2.21;95.33;98370.26;1768703;79;30030;-71
2022/01/30 15:14:11;;;;;;;6.17;2.52;;;;;;;2.21;95.35;98377.73;1772122;81;25561;-70
2022/01/30 15:16:41;;;;;;;6.92;3.02;;;;;;;2.21;95.27;98384.93;1762232;81;25632;-71
2022/01/30 15:19:10;;;;;;;7.05;3.77;;;;;;;2.24;95.27;98397.67;1757529;81;27505;-71
2022/01/30 15:21:37;;;;;;;5.12;2.67;;;;;;;2.14;95.20;98385.34;1764357;81;25827;-71
2022/01/30 15:24:06;;;;;;;4.53;2.62;;;;;;;2.29;95.09;98388.78;1771982;81;25736;-71
2022/01/30 15:26:33;;;;;;;5.40;3.05;;;;;;;2.30;94.98;98393.81;1772260;81;26158;-71
2022/01/30 15:29:02;;;;;;;6.20;2.45;;;;;;;2.33;94.90;98395.08;1771963;81;25581;-70
2022/01/30 15:31:29;;;;;;;5.12;2.67;;;;;;;2.35;94.36;98398.23;1772151;81;27417;-70
2022/01/30 15:33:57;;;;;;;6.55;2.22;;;;;;;2.38;94.23;98405.64;1772048;81;25720;-71
2022/01/30 15:36:24;;;;;;;8.40;2.47;;;;;;;2.42;93.95;98415.42;1772065;81;25469;-71
2022/01/30 15:38:51;;;;;;;7.08;2.75;;;;;;;2.44;93.90;98421.80;1772169;81;25582;-71
2022/01/30 15:41:17;;;;;;;4.85;2.40;;;;;;;2.46;93.73;98419.61;1772200;81;25285;-72
2022/01/30 15:43:44;;;;;;;5.40;1.95;;;;;;;2.50;93.49;98429.92;1772267;81;28095;-71
2022/01/30 15:49:04;;;;;;;6.60;2.45;;;;;;;2.55;92.97;98426.35;1772255;81;25628;-71
2022/01/30 15:51:37;;;;;;;8.05;2.92;;;;;;;2.56;93.04;98442.62;1772051;81;25550;-72
2022/01/30 15:54:05;;;;;;;3.25;2.10;;;;;;;2.59;92.50;98449.48;1772264;81;25578;-70
2022/01/30 15:56:32;;;;;;;5.35;2.50;;;;;;;2.61;92.28;98457.97;1765981;81;27746;-70
2022/01/30 15:58:59;;;;;;;3.75;1.98;;;;;;;2.61;91.92;98457.20;1752537;81;25405;-69
2022/01/30 16:01:29;;;;;;;5.37;2.33;;;;;;;2.64;91.79;98481.15;1752488;81;25820;-70
2022/01/30 16:03:55;;;;;;;3.62;2.20;;;;;;;2.65;91.47;98485.41;1752570;81;25564;-69
2022/01/30 16:06:21;;;;;;;3.92;2.12;;;;;;;2.64;91.23;98475.28;1732353;82;25456;-70
2022/01/30 16:08:56;;;;;;;3.85;1.70;;;;;;;2.66;91.10;98476.32;1743359;82;27651;-70
2022/01/30 16:16:30;;;;;;;15.43;6.87;;;;;;;2.70;90.62;98498.09;1731535;82;26047;-70
2022/01/30 16:18:57;;;;;;;14.90;6.00;;;;;;;2.72;90.29;98499.13;1725857;83;25689;-70
2022/01/30 16:21:23;;;;;;;15.00;5.92;;;;;;;2.72;90.12;98500.46;1731544;82;27464;-69
2022/01/30 16:23:50;;;;;;;27.20;12.43;;;;;;;2.71;89.84;98483.66;1725836;83;25557;-70
2022/01/30 16:26:17;;;;;;;8.43;4.08;;;;;;;2.71;89.47;98498.34;1731570;82;25639;-70
2022/01/30 16:28:43;;;;;;;11.43;3.92;;;;;;;2.71;89.24;98496.23;1739476;82;27735;-71
2022/01/30 16:31:10;;;;;;;14.43;4.78;;;;;;;2.71;88.74;98498.91;1739518;82;25555;-69
2022/01/30 16:33:38;;;;;;;14.07;5.55;;;;;;;2.72;88.59;98507.14;1739380;82;27559;-69
2022/01/30 16:36:05;;;;;;;11.57;4.65;;;;;;;2.72;88.67;98510.59;1739253;82;25545;-69
2022/01/30 16:38:32;;;;;;;7.85;3.75;;;;;;;2.72;88.62;98507.14;1741529;82;25555;-70
2022/01/30 16:40:58;;;;;;;7.83;3.10;;;;;;;2.74;88.50;98497.75;1741602;82;25631;-70
2022/01/30 16:43:33;;;;;;;9.10;4.17;;;;;;;2.73;88.16;98493.49;1741683;82;25638;-70
2022/01/30 16:45:59;;;;;;;7.97;3.37;;;;;;;2.76;87.91;98525.49;1738532;82;27748;-70
2022/01/30 16:48:23;;;;;;;7.97;3.33;;;;;;;2.76;87.29;98516.92;1739102;82;25654;-69
2022/01/30 16:50:50;;;;;;;6.15;2.83;;;;;;;2.78;87.59;98541.44;1739816;82;25375;-71
2022/01/30 16:53:18;;;;;;;8.45;3.22;;;;;;;2.79;85.55;98543.03;1739724;82;25667;-70
2022/01/30 16:55:45;;;;;;;7.00;2.27;;;;;;;2.84;84.20;98580.83;1739715;82;25471;-72
2022/01/30 16:58:13;;;;;;;4.97;2.35;;;;;;;2.87;84.90;98592.81;1724257;81;27546;-70
2022/01/30 17:00:40;;;;;;;4.75;2.15;;;;;;;2.88;84.55;98581.84;1771498;81;25783;-71
2022/01/30 17:03:07;;;;;;;6.65;2.47;;;;;;;2.89;84.75;98594.63;1771517;81;25569;-69
2022/01/30 17:05:33;;;;;;;5.78;2.65;;;;;;;2.90;84.49;98617.59;1771572;81;25691;-71
2022/01/30 17:08:00;;;;;;;5.65;1.82;;;;;;;2.89;83.59;98602.64;1771557;81;25676;-71
2022/01/30 17:10:27;;;;;;;4.90;1.62;;;;;;;2.89;83.86;98606.09;1771602;81;27478;-71
2022/01/30 17:15:29;;;;;;;5.08;2.83;;;;;;;2.88;83.07;98597.05;1771508;81;25788;-73
2022/01/30 17:17:56;;;;;;;12.35;5.22;;;;;;;2.87;83.65;98596.27;1762309;81;25644;-71
2022/01/30 17:20:23;;;;;;;10.03;5.12;;;;;;;2.87;83.65;98602.16;1771684;81;25664;-71
2022/01/30 17:22:50;;;;;;;10.38;4.53;;;;;;;2.87;83.49;98603.49;1771509;81;27454;-70
2022/01/30 17:25:17;;;;;;;4.67;2.58;;;;;;;2.87;83.34;98620.86;1771473;81;25718;-70
2022/01/30 17:27:43;;;;;;;6.53;3.80;;;;;;;2.85;83.10;98615.81;1771535;81;25377;-70
2022/01/30 17:30:12;;;;;;;8.53;4.22;;;;;;;2.83;83.18;98619.33;1771474;81;25476;-71
2022/01/30 17:32:38;;;;;;;4.42;2.25;;;;;;;2.80;82.94;98613.24;1771551;81;25702;-69
2022/01/30 17:35:06;;;;;;;4.28;2.10;;;;;;;2.77;82.83;98615.95;1771509;81;28025;-70
2022/01/30 17:37:33;;;;;;;4.22;2.25;;;;;;;2.75;83.14;98625.36;1771457;81;25691;-71
2022/01/30 17:39:59;;;;;;;3.58;1.82;;;;;;;2.73;83.00;98634.22;1771456;81;25269;-71
2022/01/30 17:42:26;;;;;;;7.70;2.37;;;;;;;2.70;83.13;98628.91;1771495;81;25611;-70
2022/01/30 17:44:52;;;;;;;5.67;2.70;;;;;;;2.67;83.78;98651.41;1771549;81;25755;-71
2022/01/30 17:47:20;;;;;;;5.65;2.70;;;;;;;2.60;84.16;98633.90;1771545;81;27535;-71
2022/01/30 17:49:46;;;;;;;4.97;3.22;;;;;;;2.54;84.43;98636.44;1771405;81;25540;-70
2022/01/30 17:52:13;;;;;;;7.65;3.02;;;;;;;2.48;84.76;98637.61;1771547;81;25603;-70
2022/01/30 17:54:39;;;;;;;4.65;2.42;;;;;;;2.42;84.98;98637.47;1771492;81;25991;-70
2022/01/30 17:57:06;;;;;;;5.40;2.20;;;;;;;2.37;85.36;98646.36;1769135;81;25400;-71
2022/01/30 17:59:34;;;;;;;5.62;1.72;;;;;;;2.33;85.90;98680.03;1762627;81;27533;-70
2022/01/30 18:02:01;;;;;;;3.02;1.90;;;;;;;2.27;86.15;98675.89;1762678;81;25777;-70
2022/01/30 18:04:30;;;;;;;3.98;2.00;;;;;;;2.21;85.87;98671.70;1762583;81;25686;-71
2022/01/30 18:06:58;;;;;;;3.40;1.60;;;;;;;2.16;85.70;98652.60;1762375;81;25540;-72
2022/01/30 18:09:25;;;;;;;2.52;1.70;;;;;;;2.10;85.56;98675.09;1762562;81;25697;-71
2022/01/30 18:11:52;;;;;;;2.67;1.55;;;;;;;2.04;85.64;98686.41;1759221;78;27456;-71
2022/01/30 18:14:19;;;;;;;3.20;1.60;;;;;;;2.02;85.24;98686.42;1762463;81;25870;-71
2022/01/30 18:16:49;;;;;;;3.70;1.57;;;;;;;1.97;85.22;98693.17;1761069;81;25712;-73